CAL5346 KSFO-KATL
Flight info
| Callsign | CAL5346 |
|---|---|
| Flight time | 3h 39m |
| Altitude | 39000 |
| Route | TRUKN2 SYRAH Q128 VEGUC/N0478F410 Q128 ECIGE MEMFS HUTCC KNSAW RUSSA GLAVN1 |
| Aircraft | B77L/H-SDE1E2E3FGHIJ2J3J4J5M1RWXY/LB1D1 |
Departure
| Time | 2026-05-06 22:14 |
|---|---|
| Airport | San Francisco International Airport (KSFO) |
Arrival
| Time | 2026-05-07 01:54 |
|---|---|
| Airport | Hartsfield Jackson Atlanta International Airport (KATL) |
| Time | Latitude | Longitude | Altitude | Speed | Heading |
|---|---|---|---|---|---|
| 2026-05-06 21:24 | 37.63833 | -122.38944 | 21 ft | 0 kts | 92° |
| 2026-05-06 21:58 | 37.63838 | -122.38938 | 25 ft | 4 kts | 70° |
| 2026-05-06 21:59 | 37.63839 | -122.38965 | 26 ft | 4 kts | 104° |
| 2026-05-06 21:59 | 37.63839 | -122.38989 | 23 ft | 4 kts | 67° |
| 2026-05-06 21:59 | 37.63824 | -122.39005 | 25 ft | 3 kts | 11° |
| 2026-05-06 21:59 | 37.63802 | -122.39008 | 23 ft | 4 kts | 354° |
| 2026-05-06 22:00 | 37.63778 | -122.39001 | 23 ft | 4 kts | 340° |
| 2026-05-06 22:00 | 37.63756 | -122.38986 | 22 ft | 4 kts | 329° |
| 2026-05-06 22:00 | 37.63749 | -122.38981 | 23 ft | 1 kts | 329° |
| 2026-05-06 22:04 | 37.63759 | -122.38984 | 25 ft | 7 kts | 350° |
| 2026-05-06 22:04 | 37.63788 | -122.38949 | 24 ft | 4 kts | 111° |
| 2026-05-06 22:04 | 37.63761 | -122.38928 | 23 ft | 7 kts | 151° |
| 2026-05-06 22:05 | 37.63681 | -122.38878 | 25 ft | 17 kts | 157° |
| 2026-05-06 22:05 | 37.63571 | -122.38824 | 23 ft | 17 kts | 161° |
| 2026-05-06 22:05 | 37.63465 | -122.38865 | 19 ft | 17 kts | 230° |
| 2026-05-06 22:05 | 37.63420 | -122.39007 | 24 ft | 17 kts | 248° |
| 2026-05-06 22:06 | 37.63363 | -122.39141 | 23 ft | 18 kts | 229° |
| 2026-05-06 22:06 | 37.63250 | -122.39154 | 22 ft | 18 kts | 160° |
| 2026-05-06 22:06 | 37.63168 | -122.39193 | 27 ft | 12 kts | 247° |
| 2026-05-06 22:06 | 37.63109 | -122.39260 | 28 ft | 13 kts | 175° |
| 2026-05-06 22:07 | 37.62974 | -122.39188 | 26 ft | 26 kts | 141° |
| 2026-05-06 22:07 | 37.62885 | -122.38991 | 28 ft | 26 kts | 116° |
| 2026-05-06 22:07 | 37.62796 | -122.38794 | 28 ft | 26 kts | 117° |
| 2026-05-06 22:07 | 37.62715 | -122.38591 | 27 ft | 25 kts | 117° |
| 2026-05-06 22:08 | 37.62638 | -122.38409 | 24 ft | 23 kts | 122° |
| 2026-05-06 22:08 | 37.62563 | -122.38227 | 21 ft | 23 kts | 114° |
| 2026-05-06 22:08 | 37.62488 | -122.38049 | 24 ft | 23 kts | 120° |
| 2026-05-06 22:08 | 37.62415 | -122.37877 | 26 ft | 23 kts | 117° |
| 2026-05-06 22:09 | 37.62343 | -122.37700 | 27 ft | 23 kts | 117° |
| 2026-05-06 22:09 | 37.62267 | -122.37527 | 27 ft | 23 kts | 117° |
| 2026-05-06 22:09 | 37.62197 | -122.37350 | 18 ft | 23 kts | 116° |
| 2026-05-06 22:09 | 37.62119 | -122.37178 | 20 ft | 23 kts | 119° |
| 2026-05-06 22:10 | 37.62048 | -122.37001 | 19 ft | 23 kts | 116° |
| 2026-05-06 22:10 | 37.61974 | -122.36826 | 27 ft | 23 kts | 117° |
| 2026-05-06 22:10 | 37.61901 | -122.36651 | 30 ft | 23 kts | 118° |
| 2026-05-06 22:10 | 37.61826 | -122.36477 | 30 ft | 23 kts | 118° |
| 2026-05-06 22:11 | 37.61755 | -122.36300 | 25 ft | 23 kts | 116° |
| 2026-05-06 22:11 | 37.61683 | -122.36124 | 22 ft | 23 kts | 118° |
| 2026-05-06 22:11 | 37.61616 | -122.35964 | 24 ft | 21 kts | 117° |
| 2026-05-06 22:11 | 37.61546 | -122.35805 | 28 ft | 21 kts | 120° |
| 2026-05-06 22:12 | 37.61480 | -122.35684 | 32 ft | 15 kts | 146° |
| 2026-05-06 22:12 | 37.61385 | -122.35717 | 27 ft | 15 kts | 210° |
| 2026-05-06 22:12 | 37.61290 | -122.35782 | 30 ft | 16 kts | 207° |
| 2026-05-06 22:12 | 37.61202 | -122.35865 | 27 ft | 16 kts | 248° |
| 2026-05-06 22:13 | 37.61226 | -122.35976 | 22 ft | 0 kts | 300° |
| 2026-05-06 22:14 | 37.61234 | -122.35993 | 21 ft | 10 kts | 299° |
| 2026-05-06 22:14 | 37.61359 | -122.36294 | 18 ft | 83 kts | 297° |
| 2026-05-06 22:14 | 37.61780 | -122.37289 | 36 ft | 173 kts | 298° |
| 2026-05-06 22:14 | 37.62399 | -122.38726 | 671 ft | 190 kts | 296° |
| 2026-05-06 22:15 | 37.63021 | -122.40229 | 1562 ft | 198 kts | 296° |
| 2026-05-06 22:15 | 37.63667 | -122.41776 | 2547 ft | 199 kts | 303° |
| 2026-05-06 22:15 | 37.64721 | -122.43023 | 2752 ft | 227 kts | 339° |
| 2026-05-06 22:15 | 37.66348 | -122.43155 | 3033 ft | 248 kts | 19° |
| 2026-05-06 22:16 | 37.67781 | -122.41902 | 3655 ft | 259 kts | 54° |
| 2026-05-06 22:16 | 37.68367 | -122.39787 | 4482 ft | 267 kts | 88° |
| 2026-05-06 22:16 | 37.68280 | -122.37435 | 5148 ft | 271 kts | 83° |
| 2026-05-06 22:16 | 37.68730 | -122.35149 | 5864 ft | 269 kts | 68° |
| 2026-05-06 22:17 | 37.69274 | -122.32885 | 6749 ft | 269 kts | 73° |
| 2026-05-06 22:17 | 37.69763 | -122.30580 | 7519 ft | 274 kts | 73° |
| 2026-05-06 22:17 | 37.70263 | -122.28246 | 8320 ft | 277 kts | 73° |
| 2026-05-06 22:17 | 37.70780 | -122.25884 | 9074 ft | 282 kts | 72° |
| 2026-05-06 22:18 | 37.71309 | -122.23488 | 9896 ft | 284 kts | 71° |
| 2026-05-06 22:18 | 37.71911 | -122.21104 | 10528 ft | 288 kts | 64° |
| 2026-05-06 22:18 | 37.72927 | -122.18813 | 10768 ft | 311 kts | 55° |
| 2026-05-06 22:18 | 37.74193 | -122.16469 | 10971 ft | 336 kts | 54° |
| 2026-05-06 22:19 | 37.75575 | -122.13961 | 11206 ft | 358 kts | 54° |
| 2026-05-06 22:19 | 37.76997 | -122.11319 | 11793 ft | 368 kts | 56° |
| 2026-05-06 22:19 | 37.78413 | -122.08619 | 12717 ft | 368 kts | 57° |
| 2026-05-06 22:19 | 37.79817 | -122.05908 | 13597 ft | 370 kts | 57° |
| 2026-05-06 22:20 | 37.80620 | -122.04352 | 14007 ft | 374 kts | 58° |
| 2026-05-06 22:20 | 37.81394 | -122.02739 | 14316 ft | 379 kts | 62° |
| 2026-05-06 22:20 | 37.81826 | -122.01684 | 14531 ft | 381 kts | 64° |
| 2026-05-06 22:20 | 37.82858 | -121.98584 | 15158 ft | 387 kts | 70° |
| 2026-05-06 22:21 | 37.83631 | -121.95334 | 15799 ft | 392 kts | 76° |
| 2026-05-06 22:21 | 37.84256 | -121.91966 | 16522 ft | 395 kts | 76° |
| 2026-05-06 22:21 | 37.84876 | -121.88548 | 17197 ft | 400 kts | 76° |
| 2026-05-06 22:21 | 37.85501 | -121.85102 | 17895 ft | 404 kts | 76° |
| 2026-05-06 22:22 | 37.86135 | -121.81618 | 18538 ft | 408 kts | 76° |
| 2026-05-06 22:22 | 37.86777 | -121.78102 | 19107 ft | 412 kts | 76° |
| 2026-05-06 22:22 | 37.87430 | -121.74544 | 19644 ft | 418 kts | 75° |
| 2026-05-06 22:22 | 37.87869 | -121.72162 | 20022 ft | 420 kts | 75° |
| 2026-05-06 22:23 | 37.88755 | -121.67348 | 20786 ft | 426 kts | 75° |
| 2026-05-06 22:23 | 37.89430 | -121.63680 | 21339 ft | 430 kts | 75° |
| 2026-05-06 22:23 | 37.90111 | -121.59969 | 21881 ft | 434 kts | 75° |
| 2026-05-06 22:23 | 37.90574 | -121.57446 | 22247 ft | 437 kts | 75° |
| 2026-05-06 22:24 | 37.91256 | -121.53723 | 22771 ft | 441 kts | 75° |
| 2026-05-06 22:24 | 37.91949 | -121.49923 | 23316 ft | 445 kts | 75° |
| 2026-05-06 22:24 | 37.92651 | -121.46069 | 23821 ft | 450 kts | 75° |
| 2026-05-06 22:24 | 37.93355 | -121.42194 | 24277 ft | 453 kts | 75° |
| 2026-05-06 22:25 | 37.94064 | -121.38288 | 24765 ft | 456 kts | 75° |
| 2026-05-06 22:25 | 37.94775 | -121.34364 | 25255 ft | 458 kts | 75° |
| 2026-05-06 22:25 | 37.95491 | -121.30401 | 25725 ft | 461 kts | 75° |
| 2026-05-06 22:25 | 37.96208 | -121.26428 | 26169 ft | 464 kts | 75° |
| 2026-05-06 22:26 | 37.96930 | -121.22413 | 26637 ft | 468 kts | 75° |
| 2026-05-06 22:26 | 37.97654 | -121.18382 | 27074 ft | 471 kts | 75° |
| 2026-05-06 22:26 | 37.98383 | -121.14319 | 27515 ft | 474 kts | 75° |
| 2026-05-06 22:26 | 37.99114 | -121.10232 | 27955 ft | 477 kts | 75° |
| 2026-05-06 22:27 | 37.99812 | -121.06104 | 28369 ft | 480 kts | 76° |
| 2026-05-06 22:27 | 38.00459 | -121.01987 | 28760 ft | 483 kts | 77° |
| 2026-05-06 22:27 | 38.01098 | -120.97785 | 29144 ft | 486 kts | 77° |
| 2026-05-06 22:27 | 38.01733 | -120.93568 | 29549 ft | 489 kts | 77° |
| 2026-05-06 22:28 | 38.02375 | -120.89313 | 29932 ft | 491 kts | 77° |
| 2026-05-06 22:28 | 38.03019 | -120.85062 | 30382 ft | 490 kts | 77° |
| 2026-05-06 22:28 | 38.03665 | -120.80821 | 30870 ft | 488 kts | 76° |
| 2026-05-06 22:28 | 38.04308 | -120.76603 | 31375 ft | 485 kts | 76° |
| 2026-05-06 22:29 | 38.04948 | -120.72416 | 31830 ft | 483 kts | 76° |
| 2026-05-06 22:29 | 38.05586 | -120.68234 | 32242 ft | 482 kts | 76° |
| 2026-05-06 22:29 | 38.06222 | -120.64056 | 32652 ft | 481 kts | 76° |
| 2026-05-06 22:29 | 38.06856 | -120.59885 | 33070 ft | 480 kts | 76° |
| 2026-05-06 22:30 | 38.08123 | -120.51521 | 33171 ft | 483 kts | 76° |
| 2026-05-06 22:30 | 38.09367 | -120.43243 | 33144 ft | 478 kts | 76° |
| 2026-05-06 22:31 | 38.10608 | -120.34960 | 33145 ft | 477 kts | 76° |
| 2026-05-06 22:31 | 38.11840 | -120.26688 | 33132 ft | 476 kts | 76° |
| 2026-05-06 22:32 | 38.13066 | -120.18409 | 33122 ft | 476 kts | 76° |
| 2026-05-06 22:32 | 38.14287 | -120.10120 | 33122 ft | 477 kts | 77° |
| 2026-05-06 22:33 | 38.15506 | -120.01819 | 33109 ft | 478 kts | 77° |
| 2026-05-06 22:33 | 38.16722 | -119.93494 | 33090 ft | 480 kts | 77° |
| 2026-05-06 22:34 | 38.17926 | -119.85201 | 33087 ft | 480 kts | 77° |
| 2026-05-06 22:34 | 38.19131 | -119.76852 | 33091 ft | 480 kts | 77° |
| 2026-05-06 22:35 | 38.20331 | -119.68495 | 33092 ft | 480 kts | 77° |
| 2026-05-06 22:35 | 38.21523 | -119.60149 | 33096 ft | 480 kts | 77° |
| 2026-05-06 22:36 | 38.22710 | -119.51796 | 33107 ft | 480 kts | 77° |
| 2026-05-06 22:36 | 38.23891 | -119.43442 | 33095 ft | 479 kts | 77° |
| 2026-05-06 22:37 | 38.25058 | -119.35142 | 33076 ft | 479 kts | 77° |
| 2026-05-06 22:37 | 38.26224 | -119.26806 | 33084 ft | 478 kts | 77° |
| 2026-05-06 22:38 | 38.27385 | -119.18471 | 33079 ft | 478 kts | 77° |
| 2026-05-06 22:38 | 38.28540 | -119.10133 | 33074 ft | 478 kts | 77° |
| 2026-05-06 22:39 | 38.29685 | -119.01808 | 33071 ft | 478 kts | 77° |
| 2026-05-06 22:39 | 38.30826 | -118.93476 | 33096 ft | 478 kts | 77° |
| 2026-05-06 22:40 | 38.31962 | -118.85121 | 33105 ft | 478 kts | 77° |
| 2026-05-06 22:40 | 38.33092 | -118.76774 | 33118 ft | 479 kts | 77° |
| 2026-05-06 22:41 | 38.34778 | -118.64239 | 33143 ft | 478 kts | 77° |
| 2026-05-06 22:42 | 38.35894 | -118.55882 | 33132 ft | 478 kts | 77° |
| 2026-05-06 22:42 | 38.37002 | -118.47533 | 33110 ft | 477 kts | 77° |
| 2026-05-06 22:43 | 38.38095 | -118.39254 | 33110 ft | 477 kts | 77° |
| 2026-05-06 22:43 | 38.39190 | -118.30906 | 33092 ft | 477 kts | 77° |
| 2026-05-06 22:44 | 38.40278 | -118.22571 | 33059 ft | 476 kts | 77° |
| 2026-05-06 22:44 | 38.41361 | -118.14227 | 33062 ft | 476 kts | 77° |
| 2026-05-06 22:45 | 38.42437 | -118.05886 | 33059 ft | 477 kts | 77° |
| 2026-05-06 22:45 | 38.43502 | -117.97582 | 33054 ft | 478 kts | 77° |
| 2026-05-06 22:46 | 38.44572 | -117.89196 | 33057 ft | 479 kts | 77° |
| 2026-05-06 22:46 | 38.45636 | -117.80805 | 33052 ft | 479 kts | 77° |
| 2026-05-06 22:47 | 38.46693 | -117.72411 | 33051 ft | 479 kts | 77° |
| 2026-05-06 22:47 | 38.47746 | -117.64005 | 33057 ft | 479 kts | 77° |
| 2026-05-06 22:48 | 38.48793 | -117.55605 | 33056 ft | 479 kts | 77° |
| 2026-05-06 22:48 | 38.49826 | -117.47253 | 33077 ft | 479 kts | 77° |
| 2026-05-06 22:49 | 38.50860 | -117.38850 | 33064 ft | 479 kts | 77° |
| 2026-05-06 22:49 | 38.51890 | -117.30434 | 33048 ft | 479 kts | 77° |
| 2026-05-06 22:50 | 38.52522 | -117.21934 | 33062 ft | 481 kts | 82° |
| 2026-05-06 22:50 | 38.52932 | -117.13398 | 33064 ft | 482 kts | 83° |
| 2026-05-06 22:51 | 38.53340 | -117.04883 | 33063 ft | 483 kts | 82° |
| 2026-05-06 22:51 | 38.53765 | -116.96323 | 33073 ft | 483 kts | 82° |
| 2026-05-06 22:52 | 38.54189 | -116.87757 | 33061 ft | 482 kts | 82° |
| 2026-05-06 22:52 | 38.54608 | -116.79207 | 33078 ft | 482 kts | 82° |
| 2026-05-06 22:53 | 38.55022 | -116.70654 | 33073 ft | 483 kts | 82° |
| 2026-05-06 22:53 | 38.55429 | -116.62096 | 33056 ft | 482 kts | 82° |
| 2026-05-06 22:54 | 38.55830 | -116.53539 | 33082 ft | 482 kts | 82° |
| 2026-05-06 22:54 | 38.56223 | -116.44997 | 33047 ft | 482 kts | 83° |
| 2026-05-06 22:55 | 38.56608 | -116.36498 | 33045 ft | 481 kts | 83° |
| 2026-05-06 22:55 | 38.56988 | -116.27965 | 33055 ft | 481 kts | 83° |
| 2026-05-06 22:56 | 38.57363 | -116.19424 | 33043 ft | 481 kts | 82° |
| 2026-05-06 22:56 | 38.57731 | -116.10893 | 33035 ft | 480 kts | 83° |
| 2026-05-06 22:57 | 38.58093 | -116.02354 | 33030 ft | 480 kts | 83° |
| 2026-05-06 22:57 | 38.58447 | -115.93829 | 33034 ft | 480 kts | 82° |
| 2026-05-06 22:58 | 38.58798 | -115.85303 | 33035 ft | 480 kts | 83° |
| 2026-05-06 22:58 | 38.59139 | -115.76825 | 33016 ft | 480 kts | 83° |
| 2026-05-06 22:59 | 38.59475 | -115.68301 | 33027 ft | 480 kts | 83° |
| 2026-05-06 22:59 | 38.59805 | -115.59775 | 33026 ft | 480 kts | 83° |
| 2026-05-06 23:00 | 38.60129 | -115.51259 | 33017 ft | 480 kts | 83° |
| 2026-05-06 23:00 | 38.60447 | -115.42735 | 33022 ft | 480 kts | 83° |
| 2026-05-06 23:01 | 38.60759 | -115.34217 | 33018 ft | 480 kts | 83° |
| 2026-05-06 23:01 | 38.61063 | -115.25716 | 33029 ft | 480 kts | 83° |
| 2026-05-06 23:02 | 38.61362 | -115.17204 | 33024 ft | 479 kts | 83° |
| 2026-05-06 23:02 | 38.61655 | -115.08685 | 33026 ft | 479 kts | 83° |
| 2026-05-06 23:03 | 38.61942 | -115.00172 | 33043 ft | 478 kts | 82° |
| 2026-05-06 23:03 | 38.62223 | -114.91678 | 33046 ft | 478 kts | 83° |
| 2026-05-06 23:04 | 38.62496 | -114.83180 | 33035 ft | 478 kts | 83° |
| 2026-05-06 23:04 | 38.62763 | -114.74677 | 33031 ft | 478 kts | 83° |
| 2026-05-06 23:05 | 38.63023 | -114.66231 | 33046 ft | 477 kts | 83° |
| 2026-05-06 23:05 | 38.63278 | -114.57746 | 33054 ft | 477 kts | 83° |
| 2026-05-06 23:06 | 38.63525 | -114.49251 | 33060 ft | 478 kts | 83° |
| 2026-05-06 23:06 | 38.63770 | -114.40744 | 33057 ft | 479 kts | 83° |
| 2026-05-06 23:07 | 38.64009 | -114.32215 | 33061 ft | 479 kts | 83° |
| 2026-05-06 23:07 | 38.64237 | -114.23762 | 33072 ft | 478 kts | 83° |
| 2026-05-06 23:08 | 38.64463 | -114.15208 | 33056 ft | 477 kts | 83° |
| 2026-05-06 23:08 | 38.64679 | -114.06776 | 33087 ft | 477 kts | 83° |
| 2026-05-06 23:09 | 38.64857 | -113.99668 | 33070 ft | 477 kts | 83° |
| 2026-05-06 23:09 | 38.65064 | -113.91187 | 33069 ft | 477 kts | 83° |
| 2026-05-06 23:10 | 38.65265 | -113.82702 | 33075 ft | 477 kts | 83° |
| 2026-05-06 23:10 | 38.65458 | -113.74263 | 33088 ft | 477 kts | 83° |
| 2026-05-06 23:11 | 38.65647 | -113.65763 | 33081 ft | 478 kts | 83° |
| 2026-05-06 23:11 | 38.65829 | -113.57269 | 33084 ft | 477 kts | 83° |
| 2026-05-06 23:12 | 38.66005 | -113.48767 | 33079 ft | 477 kts | 83° |
| 2026-05-06 23:12 | 38.66175 | -113.40285 | 33089 ft | 477 kts | 83° |
| 2026-05-06 23:13 | 38.66339 | -113.31794 | 33086 ft | 477 kts | 83° |
| 2026-05-06 23:13 | 38.66497 | -113.23319 | 33102 ft | 476 kts | 84° |
| 2026-05-06 23:14 | 38.66649 | -113.14843 | 33115 ft | 476 kts | 84° |
| 2026-05-06 23:14 | 38.66790 | -113.06420 | 33135 ft | 476 kts | 83° |
| 2026-05-06 23:15 | 38.66926 | -112.97942 | 33121 ft | 476 kts | 83° |
| 2026-05-06 23:15 | 38.67057 | -112.89465 | 33117 ft | 476 kts | 84° |
| 2026-05-06 23:16 | 38.67182 | -112.80986 | 33117 ft | 476 kts | 84° |
| 2026-05-06 23:16 | 38.67301 | -112.72510 | 33101 ft | 477 kts | 83° |
| 2026-05-06 23:17 | 38.67413 | -112.64021 | 33101 ft | 477 kts | 84° |
| 2026-05-06 23:17 | 38.67520 | -112.55583 | 33080 ft | 477 kts | 84° |
| 2026-05-06 23:18 | 38.67620 | -112.47093 | 33119 ft | 476 kts | 84° |
| 2026-05-06 23:18 | 38.67714 | -112.38613 | 33131 ft | 476 kts | 84° |
| 2026-05-06 23:19 | 38.67803 | -112.30136 | 33125 ft | 476 kts | 84° |
| 2026-05-06 23:19 | 38.67884 | -112.21658 | 33097 ft | 475 kts | 83° |
| 2026-05-06 23:20 | 38.67959 | -112.13212 | 33081 ft | 474 kts | 84° |
| 2026-05-06 23:20 | 38.68029 | -112.04766 | 33072 ft | 475 kts | 84° |
| 2026-05-06 23:21 | 38.68092 | -111.96310 | 33060 ft | 476 kts | 84° |
| 2026-05-06 23:21 | 38.68151 | -111.87880 | 33068 ft | 476 kts | 84° |
| 2026-05-06 23:22 | 38.68202 | -111.79411 | 33081 ft | 476 kts | 84° |
| 2026-05-06 23:22 | 38.68247 | -111.70934 | 33071 ft | 476 kts | 83° |
| 2026-05-06 23:23 | 38.68286 | -111.62466 | 33066 ft | 475 kts | 84° |
| 2026-05-06 23:23 | 38.68323 | -111.54004 | 33064 ft | 476 kts | 84° |
| 2026-05-06 23:24 | 38.68344 | -111.45533 | 33050 ft | 476 kts | 84° |
| 2026-05-06 23:24 | 38.68366 | -111.37070 | 33029 ft | 475 kts | 84° |
| 2026-05-06 23:25 | 38.68382 | -111.28598 | 33037 ft | 475 kts | 84° |
| 2026-05-06 23:25 | 38.68391 | -111.20138 | 33022 ft | 475 kts | 84° |
| 2026-05-06 23:26 | 38.68394 | -111.11669 | 33020 ft | 476 kts | 84° |
| 2026-05-06 23:26 | 38.68391 | -111.03232 | 33006 ft | 478 kts | 84° |
| 2026-05-06 23:27 | 38.68381 | -110.94729 | 33005 ft | 477 kts | 84° |
| 2026-05-06 23:27 | 38.68365 | -110.86218 | 33008 ft | 477 kts | 84° |
| 2026-05-06 23:28 | 38.68343 | -110.77718 | 33027 ft | 478 kts | 83° |
| 2026-05-06 23:28 | 38.68312 | -110.69213 | 33017 ft | 478 kts | 84° |
| 2026-05-06 23:29 | 38.68279 | -110.60711 | 32995 ft | 476 kts | 84° |
| 2026-05-06 23:29 | 38.68241 | -110.52298 | 33020 ft | 475 kts | 84° |
| 2026-05-06 23:30 | 38.68194 | -110.43837 | 33039 ft | 476 kts | 84° |
| 2026-05-06 23:30 | 38.68142 | -110.35367 | 33030 ft | 476 kts | 84° |
| 2026-05-06 23:31 | 38.68083 | -110.26895 | 33033 ft | 476 kts | 84° |
| 2026-05-06 23:31 | 38.68019 | -110.18416 | 33035 ft | 476 kts | 84° |
| 2026-05-06 23:32 | 38.67948 | -110.09944 | 33064 ft | 476 kts | 84° |
| 2026-05-06 23:32 | 38.67872 | -110.01475 | 33086 ft | 475 kts | 84° |
| 2026-05-06 23:33 | 38.67788 | -109.93063 | 33110 ft | 476 kts | 85° |
| 2026-05-06 23:33 | 38.67450 | -109.84572 | 33124 ft | 478 kts | 88° |
| 2026-05-06 23:34 | 38.66958 | -109.76075 | 33070 ft | 479 kts | 88° |
| 2026-05-06 23:34 | 38.66480 | -109.67565 | 33053 ft | 480 kts | 87° |
| 2026-05-06 23:35 | 38.66028 | -109.59039 | 33063 ft | 480 kts | 87° |
| 2026-05-06 23:35 | 38.65584 | -109.50508 | 33084 ft | 481 kts | 87° |
| 2026-05-06 23:36 | 38.65137 | -109.41966 | 33097 ft | 482 kts | 87° |
| 2026-05-06 23:36 | 38.64677 | -109.33419 | 33103 ft | 481 kts | 87° |
| 2026-05-06 23:37 | 38.64210 | -109.24872 | 33103 ft | 480 kts | 87° |
| 2026-05-06 23:37 | 38.63743 | -109.16398 | 33077 ft | 480 kts | 87° |
| 2026-05-06 23:38 | 38.63272 | -109.07872 | 33110 ft | 479 kts | 87° |
| 2026-05-06 23:38 | 38.62788 | -108.99372 | 33101 ft | 479 kts | 87° |
| 2026-05-06 23:39 | 38.62294 | -108.90880 | 33079 ft | 478 kts | 87° |
| 2026-05-06 23:39 | 38.61803 | -108.82405 | 33088 ft | 477 kts | 87° |
| 2026-05-06 23:40 | 38.61307 | -108.73940 | 33106 ft | 477 kts | 87° |
| 2026-05-06 23:40 | 38.60808 | -108.65523 | 33084 ft | 478 kts | 87° |
| 2026-05-06 23:41 | 38.60297 | -108.57033 | 33068 ft | 478 kts | 87° |
| 2026-05-06 23:41 | 38.59779 | -108.48567 | 33071 ft | 478 kts | 87° |
| 2026-05-06 23:42 | 38.59256 | -108.40084 | 33074 ft | 478 kts | 87° |
| 2026-05-06 23:42 | 38.58731 | -108.31668 | 33075 ft | 478 kts | 87° |
| 2026-05-06 23:43 | 38.58192 | -108.23147 | 33089 ft | 478 kts | 88° |
| 2026-05-06 23:43 | 38.57654 | -108.14749 | 33120 ft | 477 kts | 88° |
| 2026-05-06 23:44 | 38.57109 | -108.06306 | 33146 ft | 477 kts | 88° |
| 2026-05-06 23:44 | 38.56557 | -107.97854 | 33167 ft | 476 kts | 88° |
| 2026-05-06 23:45 | 38.56000 | -107.89423 | 33165 ft | 476 kts | 88° |
| 2026-05-06 23:45 | 38.55436 | -107.80979 | 33060 ft | 476 kts | 88° |
| 2026-05-06 23:46 | 38.54866 | -107.72544 | 33078 ft | 477 kts | 88° |
| 2026-05-06 23:46 | 38.54288 | -107.64087 | 33043 ft | 477 kts | 88° |
| 2026-05-06 23:47 | 38.53706 | -107.55639 | 33072 ft | 477 kts | 88° |
| 2026-05-06 23:47 | 38.53117 | -107.47191 | 33077 ft | 478 kts | 88° |
| 2026-05-06 23:48 | 38.52525 | -107.38780 | 33120 ft | 478 kts | 88° |
| 2026-05-06 23:48 | 38.51922 | -107.30321 | 33110 ft | 478 kts | 88° |
| 2026-05-06 23:49 | 38.51315 | -107.21876 | 33099 ft | 477 kts | 88° |
| 2026-05-06 23:49 | 38.50699 | -107.13443 | 33108 ft | 476 kts | 88° |
| 2026-05-06 23:50 | 38.50084 | -107.05043 | 33130 ft | 475 kts | 88° |
| 2026-05-06 23:50 | 38.49147 | -106.92415 | 33135 ft | 476 kts | 89° |
| 2026-05-06 23:51 | 38.48519 | -106.84063 | 33075 ft | 476 kts | 89° |
| 2026-05-06 23:51 | 38.47880 | -106.75639 | 33064 ft | 476 kts | 89° |
| 2026-05-06 23:52 | 38.47236 | -106.67238 | 33097 ft | 476 kts | 89° |
| 2026-05-06 23:52 | 38.46584 | -106.58836 | 33070 ft | 475 kts | 89° |
| 2026-05-06 23:53 | 38.45933 | -106.50506 | 33066 ft | 474 kts | 89° |
| 2026-05-06 23:53 | 38.45270 | -106.42083 | 33103 ft | 473 kts | 89° |
| 2026-05-06 23:54 | 38.44612 | -106.33771 | 33151 ft | 473 kts | 89° |
| 2026-05-06 23:54 | 38.43935 | -106.25400 | 33115 ft | 473 kts | 89° |
| 2026-05-06 23:55 | 38.43258 | -106.17067 | 33128 ft | 473 kts | 89° |
| 2026-05-06 23:55 | 38.42696 | -106.10135 | 33150 ft | 473 kts | 89° |
| 2026-05-06 23:56 | 38.42011 | -106.01789 | 33137 ft | 473 kts | 89° |
| 2026-05-06 23:56 | 38.41314 | -105.93437 | 33121 ft | 476 kts | 89° |
| 2026-05-06 23:57 | 38.40612 | -105.85021 | 33161 ft | 478 kts | 89° |
| 2026-05-06 23:57 | 38.39904 | -105.76642 | 33185 ft | 479 kts | 90° |
| 2026-05-06 23:58 | 38.37189 | -105.45176 | 33221 ft | 484 kts | 90° |
| 2026-05-06 23:58 | 38.21727 | -104.06548 | 34622 ft | 529 kts | 102° |
| 2026-05-06 23:59 | 38.19128 | -103.92690 | 34374 ft | 526 kts | 101° |
| 2026-05-06 23:59 | 38.18553 | -103.88200 | 34164 ft | 518 kts | 95° |
| 2026-05-06 23:59 | 38.18219 | -103.83665 | 33919 ft | 515 kts | 93° |
| 2026-05-06 23:59 | 38.17917 | -103.79113 | 33667 ft | 516 kts | 94° |
| 2026-05-07 00:00 | 38.17549 | -103.74574 | 33455 ft | 516 kts | 95° |
| 2026-05-07 00:00 | 38.17092 | -103.70046 | 33330 ft | 515 kts | 97° |
| 2026-05-07 00:00 | 38.14125 | -103.46920 | 33361 ft | 514 kts | 99° |
| 2026-05-07 00:01 | 38.12187 | -103.32127 | 33116 ft | 535 kts | 99° |
| 2026-05-07 00:01 | 38.11115 | -103.23955 | 33218 ft | 534 kts | 99° |
| 2026-05-07 00:01 | 38.09396 | -103.10935 | 33232 ft | 529 kts | 101° |
| 2026-05-07 00:02 | 38.08165 | -103.01698 | 33191 ft | 531 kts | 101° |
| 2026-05-07 00:02 | 38.06776 | -102.91345 | 33188 ft | 532 kts | 101° |
| 2026-05-07 00:03 | 38.04265 | -102.72791 | 33198 ft | 534 kts | 101° |
| 2026-05-07 00:03 | 38.01711 | -102.54165 | 33199 ft | 537 kts | 102° |
| 2026-05-07 00:04 | 37.99483 | -102.38077 | 33149 ft | 539 kts | 103° |
| 2026-05-07 00:04 | 37.98140 | -102.28718 | 33173 ft | 541 kts | 104° |
| 2026-05-07 00:05 | 37.96662 | -102.19393 | 33178 ft | 544 kts | 104° |
| 2026-05-07 00:05 | 37.95139 | -102.09974 | 33174 ft | 547 kts | 104° |
| 2026-05-07 00:06 | 37.93618 | -102.00500 | 33169 ft | 549 kts | 104° |
| 2026-05-07 00:06 | 37.92104 | -101.91025 | 33166 ft | 549 kts | 104° |
| 2026-05-07 00:07 | 37.90583 | -101.81542 | 33172 ft | 549 kts | 104° |
| 2026-05-07 00:07 | 37.89054 | -101.72066 | 33168 ft | 548 kts | 105° |
| 2026-05-07 00:08 | 37.87518 | -101.62611 | 33170 ft | 547 kts | 105° |
| 2026-05-07 00:08 | 37.85987 | -101.53238 | 33163 ft | 546 kts | 105° |
| 2026-05-07 00:09 | 37.84442 | -101.43833 | 33167 ft | 546 kts | 105° |
| 2026-05-07 00:09 | 37.82891 | -101.34408 | 33145 ft | 546 kts | 105° |
| 2026-05-07 00:10 | 37.81340 | -101.25069 | 33167 ft | 546 kts | 106° |
| 2026-05-07 00:10 | 37.79769 | -101.15673 | 33172 ft | 547 kts | 106° |
| 2026-05-07 00:11 | 37.78191 | -101.06267 | 33168 ft | 547 kts | 106° |
| 2026-05-07 00:11 | 37.76603 | -100.96839 | 33172 ft | 550 kts | 106° |
| 2026-05-07 00:12 | 37.74997 | -100.87362 | 33170 ft | 552 kts | 106° |
| 2026-05-07 00:12 | 37.73379 | -100.77859 | 33178 ft | 553 kts | 106° |
| 2026-05-07 00:13 | 37.71753 | -100.68354 | 33169 ft | 553 kts | 106° |
| 2026-05-07 00:13 | 37.70120 | -100.58849 | 33166 ft | 552 kts | 107° |
| 2026-05-07 00:14 | 37.68493 | -100.49439 | 33155 ft | 551 kts | 107° |
| 2026-05-07 00:14 | 37.66851 | -100.39993 | 33163 ft | 550 kts | 107° |
| 2026-05-07 00:15 | 37.65202 | -100.30557 | 33161 ft | 550 kts | 107° |
| 2026-05-07 00:15 | 37.63557 | -100.21185 | 33159 ft | 550 kts | 107° |
| 2026-05-07 00:16 | 37.61895 | -100.11763 | 33161 ft | 551 kts | 108° |
| 2026-05-07 00:16 | 37.60216 | -100.02298 | 33170 ft | 553 kts | 108° |
| 2026-05-07 00:17 | 37.58527 | -99.92817 | 33170 ft | 555 kts | 108° |
| 2026-05-07 00:17 | 37.56826 | -99.83314 | 33181 ft | 556 kts | 108° |
| 2026-05-07 00:18 | 37.55114 | -99.73792 | 33105 ft | 558 kts | 108° |
| 2026-05-07 00:18 | 37.53397 | -99.64289 | 33149 ft | 560 kts | 109° |
| 2026-05-07 00:19 | 37.51645 | -99.54673 | 33156 ft | 565 kts | 109° |
| 2026-05-07 00:19 | 37.49877 | -99.44992 | 33150 ft | 569 kts | 110° |
| 2026-05-07 00:20 | 37.48089 | -99.35242 | 33147 ft | 573 kts | 110° |
| 2026-05-07 00:20 | 37.46286 | -99.25457 | 33149 ft | 574 kts | 110° |
| 2026-05-07 00:21 | 37.44472 | -99.15662 | 33137 ft | 574 kts | 110° |
| 2026-05-07 00:21 | 37.42667 | -99.05955 | 33132 ft | 573 kts | 110° |
| 2026-05-07 00:22 | 37.40842 | -98.96200 | 33133 ft | 573 kts | 110° |
| 2026-05-07 00:22 | 37.39008 | -98.86455 | 33141 ft | 573 kts | 111° |
| 2026-05-07 00:23 | 37.36499 | -98.73213 | 33143 ft | 582 kts | 112° |
| 2026-05-07 00:23 | 37.32660 | -98.53127 | 33132 ft | 598 kts | 112° |
| 2026-05-07 00:24 | 37.30166 | -98.40067 | 33109 ft | 587 kts | 112° |
| 2026-05-07 00:24 | 37.28257 | -98.30143 | 33111 ft | 585 kts | 113° |
| 2026-05-07 00:25 | 37.26318 | -98.20230 | 33131 ft | 591 kts | 113° |
| 2026-05-07 00:25 | 37.24335 | -98.10111 | 33128 ft | 595 kts | 113° |
| 2026-05-07 00:26 | 37.22353 | -97.99997 | 33125 ft | 597 kts | 113° |
| 2026-05-07 00:26 | 37.20377 | -97.89948 | 33057 ft | 597 kts | 114° |
| 2026-05-07 00:27 | 37.18381 | -97.79845 | 33122 ft | 595 kts | 114° |
| 2026-05-07 00:27 | 37.16375 | -97.69772 | 33109 ft | 595 kts | 114° |
| 2026-05-07 00:28 | 37.14363 | -97.59714 | 33103 ft | 594 kts | 114° |
| 2026-05-07 00:28 | 37.12342 | -97.49660 | 33106 ft | 594 kts | 114° |
| 2026-05-07 00:29 | 37.10315 | -97.39619 | 33113 ft | 594 kts | 114° |
| 2026-05-07 00:30 | 37.06248 | -97.19611 | 33120 ft | 595 kts | 114° |
| 2026-05-07 00:30 | 37.04194 | -97.09579 | 33124 ft | 595 kts | 114° |
| 2026-05-07 00:31 | 37.02133 | -96.99556 | 33067 ft | 594 kts | 114° |
| 2026-05-07 00:31 | 37.00070 | -96.89565 | 33137 ft | 592 kts | 114° |
| 2026-05-07 00:32 | 36.97997 | -96.79580 | 33110 ft | 592 kts | 114° |
| 2026-05-07 00:32 | 36.95932 | -96.69679 | 33112 ft | 592 kts | 114° |
| 2026-05-07 00:33 | 36.93845 | -96.59719 | 33109 ft | 593 kts | 114° |
| 2026-05-07 00:33 | 36.91744 | -96.49735 | 33107 ft | 593 kts | 114° |
| 2026-05-07 00:34 | 36.89639 | -96.39769 | 33092 ft | 592 kts | 115° |
| 2026-05-07 00:34 | 36.87525 | -96.29811 | 33113 ft | 592 kts | 115° |
| 2026-05-07 00:35 | 36.85418 | -96.19933 | 33111 ft | 592 kts | 115° |
| 2026-05-07 00:35 | 36.83292 | -96.10001 | 33039 ft | 592 kts | 115° |
| 2026-05-07 00:36 | 36.81127 | -96.00111 | 33126 ft | 586 kts | 118° |
| 2026-05-07 00:36 | 36.78468 | -95.90582 | 33129 ft | 580 kts | 121° |
| 2026-05-07 00:37 | 36.75699 | -95.81119 | 33113 ft | 581 kts | 121° |
| 2026-05-07 00:37 | 36.72963 | -95.71695 | 33101 ft | 582 kts | 121° |
| 2026-05-07 00:38 | 36.70227 | -95.62184 | 33078 ft | 583 kts | 120° |
| 2026-05-07 00:38 | 36.67490 | -95.52674 | 33088 ft | 583 kts | 121° |
| 2026-05-07 00:39 | 36.64738 | -95.43155 | 33091 ft | 584 kts | 121° |
| 2026-05-07 00:39 | 36.61975 | -95.33645 | 33042 ft | 584 kts | 121° |
| 2026-05-07 00:40 | 36.59224 | -95.24205 | 33078 ft | 583 kts | 121° |
| 2026-05-07 00:40 | 36.56448 | -95.14715 | 33088 ft | 583 kts | 121° |
| 2026-05-07 00:41 | 36.53670 | -95.05249 | 33091 ft | 583 kts | 121° |
| 2026-05-07 00:41 | 36.50881 | -94.95782 | 33084 ft | 583 kts | 121° |
| 2026-05-07 00:42 | 36.48086 | -94.86323 | 33088 ft | 583 kts | 121° |
| 2026-05-07 00:42 | 36.45298 | -94.76922 | 33091 ft | 583 kts | 121° |
| 2026-05-07 00:43 | 36.42471 | -94.67419 | 33091 ft | 583 kts | 121° |
| 2026-05-07 00:43 | 36.39658 | -94.57991 | 33051 ft | 581 kts | 121° |
| 2026-05-07 00:44 | 36.36868 | -94.48669 | 33090 ft | 579 kts | 121° |
| 2026-05-07 00:44 | 36.34056 | -94.39314 | 33091 ft | 578 kts | 121° |
| 2026-05-07 00:45 | 36.31241 | -94.29986 | 33083 ft | 577 kts | 122° |
| 2026-05-07 00:45 | 36.28881 | -94.22180 | 33108 ft | 577 kts | 122° |
| 2026-05-07 00:46 | 36.26079 | -94.12934 | 33085 ft | 576 kts | 122° |
| 2026-05-07 00:46 | 36.23260 | -94.03636 | 33086 ft | 577 kts | 121° |
| 2026-05-07 00:47 | 36.20448 | -93.94317 | 33094 ft | 577 kts | 121° |
| 2026-05-07 00:47 | 36.17633 | -93.85005 | 33054 ft | 577 kts | 121° |
| 2026-05-07 00:48 | 36.14809 | -93.75706 | 33058 ft | 577 kts | 121° |
| 2026-05-07 00:48 | 36.11978 | -93.66413 | 33078 ft | 578 kts | 122° |
| 2026-05-07 00:49 | 36.09125 | -93.57107 | 33059 ft | 579 kts | 122° |
| 2026-05-07 00:49 | 36.06268 | -93.47801 | 33054 ft | 580 kts | 122° |
| 2026-05-07 00:50 | 36.03403 | -93.38484 | 33059 ft | 580 kts | 122° |
| 2026-05-07 00:50 | 36.00535 | -93.29187 | 33078 ft | 579 kts | 122° |
| 2026-05-07 00:51 | 35.97655 | -93.19897 | 33068 ft | 578 kts | 122° |
| 2026-05-07 00:51 | 35.94795 | -93.10698 | 33072 ft | 578 kts | 122° |
| 2026-05-07 00:52 | 35.91913 | -93.01451 | 33055 ft | 577 kts | 122° |
| 2026-05-07 00:52 | 35.89027 | -92.92222 | 33055 ft | 576 kts | 122° |
| 2026-05-07 00:53 | 35.86129 | -92.83004 | 33039 ft | 576 kts | 122° |
| 2026-05-07 00:53 | 35.83233 | -92.73796 | 33075 ft | 575 kts | 122° |
| 2026-05-07 00:54 | 35.80334 | -92.64607 | 33059 ft | 575 kts | 122° |
| 2026-05-07 00:54 | 35.77428 | -92.55444 | 33076 ft | 574 kts | 122° |
| 2026-05-07 00:55 | 35.74513 | -92.46284 | 33065 ft | 575 kts | 122° |
| 2026-05-07 00:55 | 35.71592 | -92.37118 | 33033 ft | 574 kts | 122° |
| 2026-05-07 00:56 | 35.68693 | -92.28034 | 33040 ft | 575 kts | 122° |
| 2026-05-07 00:56 | 35.65753 | -92.18878 | 33071 ft | 574 kts | 122° |
| 2026-05-07 00:57 | 35.62816 | -92.09742 | 33083 ft | 574 kts | 122° |
| 2026-05-07 00:57 | 35.59875 | -92.00628 | 33081 ft | 573 kts | 122° |
| 2026-05-07 00:58 | 35.56934 | -91.91543 | 33073 ft | 571 kts | 122° |
| 2026-05-07 00:58 | 35.54158 | -91.82390 | 33058 ft | 573 kts | 118° |
| 2026-05-07 00:59 | 35.50412 | -91.68458 | 33081 ft | 572 kts | 118° |
| 2026-05-07 01:00 | 35.47899 | -91.59275 | 33067 ft | 570 kts | 118° |
| 2026-05-07 01:00 | 35.45327 | -91.50089 | 33072 ft | 569 kts | 118° |
| 2026-05-07 01:01 | 35.42734 | -91.40914 | 33102 ft | 569 kts | 118° |
| 2026-05-07 01:01 | 35.40135 | -91.31730 | 33116 ft | 571 kts | 118° |
| 2026-05-07 01:02 | 35.37529 | -91.22532 | 33117 ft | 572 kts | 118° |
| 2026-05-07 01:02 | 35.34911 | -91.13314 | 33100 ft | 573 kts | 118° |
| 2026-05-07 01:03 | 35.32279 | -91.04081 | 33090 ft | 574 kts | 118° |
| 2026-05-07 01:03 | 35.29655 | -90.94905 | 33095 ft | 574 kts | 118° |
| 2026-05-07 01:04 | 35.27004 | -90.85666 | 33092 ft | 574 kts | 118° |
| 2026-05-07 01:04 | 35.24351 | -90.76453 | 33017 ft | 574 kts | 118° |
| 2026-05-07 01:05 | 35.21708 | -90.67289 | 33075 ft | 568 kts | 119° |
| 2026-05-07 01:05 | 35.19070 | -90.58189 | 33061 ft | 568 kts | 119° |
| 2026-05-07 01:06 | 35.16422 | -90.49093 | 33067 ft | 568 kts | 119° |
| 2026-05-07 01:06 | 35.13770 | -90.40004 | 33026 ft | 568 kts | 119° |
| 2026-05-07 01:07 | 35.11112 | -90.30920 | 33029 ft | 568 kts | 119° |
| 2026-05-07 01:07 | 35.08450 | -90.21848 | 33025 ft | 568 kts | 119° |
| 2026-05-07 01:08 | 35.05777 | -90.12771 | 33031 ft | 568 kts | 119° |
| 2026-05-07 01:08 | 35.03102 | -90.03710 | 33038 ft | 568 kts | 119° |
| 2026-05-07 01:09 | 35.00834 | -89.94478 | 33006 ft | 578 kts | 108° |
| 2026-05-07 01:09 | 34.99502 | -89.84766 | 33024 ft | 580 kts | 105° |
| 2026-05-07 01:10 | 34.98224 | -89.75046 | 33014 ft | 579 kts | 106° |
| 2026-05-07 01:10 | 34.96889 | -89.65371 | 33018 ft | 578 kts | 106° |
| 2026-05-07 01:11 | 34.95514 | -89.55720 | 33029 ft | 578 kts | 107° |
| 2026-05-07 01:11 | 34.94133 | -89.46123 | 33028 ft | 578 kts | 107° |
| 2026-05-07 01:12 | 34.92741 | -89.36466 | 33020 ft | 578 kts | 107° |
| 2026-05-07 01:12 | 34.91346 | -89.26813 | 33022 ft | 578 kts | 107° |
| 2026-05-07 01:13 | 34.89943 | -89.17157 | 33012 ft | 578 kts | 107° |
| 2026-05-07 01:13 | 34.88530 | -89.07500 | 33016 ft | 579 kts | 107° |
| 2026-05-07 01:14 | 34.87108 | -88.97843 | 33020 ft | 579 kts | 107° |
| 2026-05-07 01:14 | 34.85679 | -88.88185 | 33015 ft | 580 kts | 107° |
| 2026-05-07 01:15 | 34.84247 | -88.78557 | 33010 ft | 580 kts | 107° |
| 2026-05-07 01:15 | 34.82801 | -88.68893 | 33019 ft | 581 kts | 107° |
| 2026-05-07 01:16 | 34.81342 | -88.59206 | 33018 ft | 582 kts | 107° |
| 2026-05-07 01:16 | 34.79875 | -88.49513 | 33020 ft | 582 kts | 107° |
| 2026-05-07 01:17 | 34.78401 | -88.39830 | 33008 ft | 582 kts | 107° |
| 2026-05-07 01:17 | 34.76918 | -88.30134 | 33014 ft | 583 kts | 107° |
| 2026-05-07 01:18 | 34.75426 | -88.20446 | 33006 ft | 583 kts | 108° |
| 2026-05-07 01:18 | 34.73937 | -88.10812 | 33009 ft | 583 kts | 108° |
| 2026-05-07 01:19 | 34.72427 | -88.01114 | 32997 ft | 583 kts | 108° |
| 2026-05-07 01:19 | 34.70912 | -87.91423 | 32977 ft | 583 kts | 108° |
| 2026-05-07 01:20 | 34.69391 | -87.81750 | 33001 ft | 582 kts | 108° |
| 2026-05-07 01:20 | 34.67871 | -87.72137 | 32989 ft | 582 kts | 108° |
| 2026-05-07 01:21 | 34.66335 | -87.62474 | 32992 ft | 583 kts | 108° |
| 2026-05-07 01:21 | 34.64789 | -87.52802 | 32981 ft | 583 kts | 108° |
| 2026-05-07 01:22 | 34.63237 | -87.43127 | 32986 ft | 583 kts | 108° |
| 2026-05-07 01:22 | 34.61535 | -87.33514 | 32973 ft | 581 kts | 110° |
| 2026-05-07 01:23 | 34.59716 | -87.23959 | 32970 ft | 581 kts | 110° |
| 2026-05-07 01:23 | 34.57932 | -87.14399 | 32983 ft | 581 kts | 109° |
| 2026-05-07 01:24 | 34.56204 | -87.04825 | 32988 ft | 582 kts | 108° |
| 2026-05-07 01:24 | 34.54610 | -86.95188 | 32986 ft | 582 kts | 108° |
| 2026-05-07 01:25 | 34.52547 | -86.85841 | 32977 ft | 572 kts | 116° |
| 2026-05-07 01:25 | 34.49947 | -86.76721 | 33055 ft | 576 kts | 116° |
| 2026-05-07 01:26 | 34.47524 | -86.67491 | 32972 ft | 573 kts | 115° |
| 2026-05-07 01:26 | 34.45130 | -86.58269 | 32970 ft | 574 kts | 115° |
| 2026-05-07 01:26 | 34.43928 | -86.53680 | 32816 ft | 570 kts | 115° |
| 2026-05-07 01:27 | 34.42736 | -86.49136 | 32742 ft | 562 kts | 115° |
| 2026-05-07 01:27 | 34.41540 | -86.44613 | 32450 ft | 566 kts | 114° |
| 2026-05-07 01:27 | 34.40336 | -86.40063 | 32123 ft | 567 kts | 114° |
| 2026-05-07 01:27 | 34.39137 | -86.35521 | 31764 ft | 564 kts | 114° |
| 2026-05-07 01:28 | 34.37945 | -86.31009 | 31327 ft | 560 kts | 114° |
| 2026-05-07 01:28 | 34.36764 | -86.26545 | 30908 ft | 555 kts | 114° |
| 2026-05-07 01:28 | 34.35588 | -86.22112 | 30432 ft | 550 kts | 113° |
| 2026-05-07 01:28 | 34.34420 | -86.17725 | 29956 ft | 546 kts | 113° |
| 2026-05-07 01:29 | 34.33264 | -86.13376 | 29435 ft | 541 kts | 112° |
| 2026-05-07 01:29 | 34.32135 | -86.09058 | 28904 ft | 536 kts | 112° |
| 2026-05-07 01:29 | 34.31026 | -86.04761 | 28381 ft | 532 kts | 112° |
| 2026-05-07 01:29 | 34.29928 | -86.00499 | 27798 ft | 530 kts | 112° |
| 2026-05-07 01:30 | 34.28830 | -85.96249 | 27163 ft | 529 kts | 112° |
| 2026-05-07 01:30 | 34.28100 | -85.93434 | 26747 ft | 529 kts | 112° |
| 2026-05-07 01:30 | 34.26998 | -85.89196 | 26135 ft | 528 kts | 112° |
| 2026-05-07 01:30 | 34.25894 | -85.84963 | 25522 ft | 527 kts | 112° |
| 2026-05-07 01:31 | 34.24451 | -85.79429 | 24705 ft | 513 kts | 112° |
| 2026-05-07 01:31 | 34.23390 | -85.75364 | 24113 ft | 500 kts | 112° |
| 2026-05-07 01:31 | 34.22689 | -85.72680 | 23688 ft | 492 kts | 112° |
| 2026-05-07 01:31 | 34.21664 | -85.68771 | 23025 ft | 482 kts | 112° |
| 2026-05-07 01:32 | 34.20660 | -85.64958 | 22343 ft | 472 kts | 112° |
| 2026-05-07 01:32 | 34.19688 | -85.61268 | 21680 ft | 462 kts | 112° |
| 2026-05-07 01:32 | 34.18708 | -85.57554 | 21024 ft | 454 kts | 112° |
| 2026-05-07 01:32 | 34.17758 | -85.53960 | 20415 ft | 446 kts | 112° |
| 2026-05-07 01:33 | 34.16827 | -85.50444 | 19840 ft | 447 kts | 112° |
| 2026-05-07 01:33 | 34.15862 | -85.46810 | 19287 ft | 451 kts | 111° |
| 2026-05-07 01:33 | 34.14915 | -85.43239 | 18743 ft | 453 kts | 111° |
| 2026-05-07 01:33 | 34.13949 | -85.39598 | 18185 ft | 455 kts | 111° |
| 2026-05-07 01:34 | 34.12994 | -85.35951 | 17561 ft | 457 kts | 110° |
| 2026-05-07 01:34 | 34.12046 | -85.32287 | 16952 ft | 458 kts | 110° |
| 2026-05-07 01:34 | 34.11101 | -85.28618 | 16350 ft | 458 kts | 110° |
| 2026-05-07 01:34 | 34.10151 | -85.24942 | 15751 ft | 458 kts | 110° |
| 2026-05-07 01:35 | 34.09202 | -85.21280 | 15157 ft | 458 kts | 110° |
| 2026-05-07 01:35 | 34.08250 | -85.17616 | 14583 ft | 456 kts | 110° |
| 2026-05-07 01:35 | 34.07318 | -85.14023 | 14150 ft | 434 kts | 110° |
| 2026-05-07 01:35 | 34.06457 | -85.10669 | 13973 ft | 402 kts | 110° |
| 2026-05-07 01:36 | 34.05661 | -85.07534 | 13966 ft | 388 kts | 110° |
| 2026-05-07 01:36 | 34.04871 | -85.04419 | 13962 ft | 389 kts | 110° |
| 2026-05-07 01:36 | 34.04088 | -85.01322 | 13975 ft | 384 kts | 110° |
| 2026-05-07 01:36 | 34.03312 | -84.98250 | 13975 ft | 383 kts | 110° |
| 2026-05-07 01:37 | 34.02531 | -84.95158 | 13990 ft | 387 kts | 110° |
| 2026-05-07 01:37 | 34.01738 | -84.92032 | 13979 ft | 392 kts | 110° |
| 2026-05-07 01:37 | 34.00934 | -84.88874 | 13985 ft | 396 kts | 110° |
| 2026-05-07 01:37 | 34.00024 | -84.85760 | 13890 ft | 391 kts | 118° |
| 2026-05-07 01:38 | 33.98686 | -84.82926 | 13528 ft | 390 kts | 130° |
| 2026-05-07 01:38 | 33.96987 | -84.80420 | 13164 ft | 382 kts | 139° |
| 2026-05-07 01:38 | 33.95044 | -84.78318 | 12772 ft | 372 kts | 148° |
| 2026-05-07 01:38 | 33.93003 | -84.76441 | 12404 ft | 366 kts | 148° |
| 2026-05-07 01:39 | 33.90990 | -84.74598 | 12064 ft | 360 kts | 148° |
| 2026-05-07 01:39 | 33.89089 | -84.72843 | 11998 ft | 339 kts | 148° |
| 2026-05-07 01:39 | 33.87258 | -84.71145 | 11976 ft | 324 kts | 148° |
| 2026-05-07 01:39 | 33.85508 | -84.69519 | 11960 ft | 315 kts | 149° |
| 2026-05-07 01:40 | 33.83773 | -84.67909 | 11968 ft | 314 kts | 149° |
| 2026-05-07 01:40 | 33.82047 | -84.66306 | 11973 ft | 313 kts | 149° |
| 2026-05-07 01:40 | 33.80333 | -84.64710 | 11998 ft | 312 kts | 149° |
| 2026-05-07 01:40 | 33.78609 | -84.63102 | 12007 ft | 314 kts | 149° |
| 2026-05-07 01:41 | 33.76880 | -84.61496 | 11996 ft | 313 kts | 149° |
| 2026-05-07 01:41 | 33.75129 | -84.59860 | 11972 ft | 300 kts | 147° |
| 2026-05-07 01:41 | 33.73862 | -84.58075 | 11951 ft | 287 kts | 120° |
| 2026-05-07 01:41 | 33.73280 | -84.55779 | 12022 ft | 294 kts | 100° |
| 2026-05-07 01:42 | 33.73239 | -84.53319 | 11993 ft | 294 kts | 91° |
| 2026-05-07 01:42 | 33.73270 | -84.50854 | 11780 ft | 298 kts | 92° |
| 2026-05-07 01:42 | 33.73285 | -84.48349 | 11398 ft | 301 kts | 92° |
| 2026-05-07 01:42 | 33.73295 | -84.45895 | 11015 ft | 292 kts | 93° |
| 2026-05-07 01:43 | 33.73300 | -84.43501 | 10623 ft | 281 kts | 94° |
| 2026-05-07 01:43 | 33.73297 | -84.41165 | 10231 ft | 280 kts | 93° |
| 2026-05-07 01:43 | 33.73294 | -84.38804 | 9785 ft | 286 kts | 93° |
| 2026-05-07 01:43 | 33.73294 | -84.36393 | 9234 ft | 290 kts | 94° |
| 2026-05-07 01:44 | 33.73294 | -84.33959 | 8690 ft | 291 kts | 94° |
| 2026-05-07 01:44 | 33.73294 | -84.31562 | 8098 ft | 284 kts | 94° |
| 2026-05-07 01:44 | 33.73296 | -84.29220 | 7537 ft | 277 kts | 94° |
| 2026-05-07 01:44 | 33.73298 | -84.26933 | 6969 ft | 271 kts | 92° |
| 2026-05-07 01:45 | 33.73303 | -84.24690 | 6414 ft | 265 kts | 93° |
| 2026-05-07 01:45 | 33.73305 | -84.22497 | 5844 ft | 259 kts | 94° |
| 2026-05-07 01:45 | 33.73308 | -84.20360 | 5268 ft | 252 kts | 94° |
| 2026-05-07 01:45 | 33.73308 | -84.18308 | 5078 ft | 247 kts | 94° |
| 2026-05-07 01:46 | 33.73307 | -84.16241 | 4992 ft | 246 kts | 94° |
| 2026-05-07 01:46 | 33.73288 | -84.14215 | 4956 ft | 237 kts | 103° |
| 2026-05-07 01:46 | 33.72740 | -84.12488 | 4981 ft | 212 kts | 139° |
| 2026-05-07 01:46 | 33.71566 | -84.11505 | 4924 ft | 204 kts | 167° |
| 2026-05-07 01:47 | 33.70191 | -84.11039 | 4636 ft | 207 kts | 173° |
| 2026-05-07 01:47 | 33.68786 | -84.10659 | 4212 ft | 205 kts | 174° |
| 2026-05-07 01:47 | 33.67458 | -84.10677 | 3977 ft | 179 kts | 206° |
| 2026-05-07 01:47 | 33.66539 | -84.11653 | 4002 ft | 181 kts | 237° |
| 2026-05-07 01:48 | 33.65994 | -84.13006 | 3989 ft | 182 kts | 243° |
| 2026-05-07 01:48 | 33.65504 | -84.14400 | 3980 ft | 179 kts | 244° |
| 2026-05-07 01:48 | 33.65035 | -84.15756 | 3954 ft | 172 kts | 244° |
| 2026-05-07 01:48 | 33.64594 | -84.17058 | 3974 ft | 166 kts | 244° |
| 2026-05-07 01:49 | 33.64197 | -84.18358 | 3971 ft | 164 kts | 255° |
| 2026-05-07 01:49 | 33.64466 | -84.19731 | 4007 ft | 182 kts | 292° |
| 2026-05-07 01:49 | 33.65115 | -84.21028 | 3988 ft | 173 kts | 277° |
| 2026-05-07 01:49 | 33.65062 | -84.22406 | 4022 ft | 167 kts | 257° |
| 2026-05-07 01:50 | 33.64991 | -84.23826 | 3815 ft | 173 kts | 262° |
| 2026-05-07 01:50 | 33.64975 | -84.25255 | 3554 ft | 168 kts | 263° |
| 2026-05-07 01:50 | 33.64969 | -84.26648 | 3386 ft | 167 kts | 263° |
| 2026-05-07 01:50 | 33.64962 | -84.28034 | 3161 ft | 169 kts | 263° |
| 2026-05-07 01:51 | 33.64960 | -84.29425 | 2939 ft | 164 kts | 263° |
| 2026-05-07 01:51 | 33.64958 | -84.30778 | 2799 ft | 160 kts | 263° |
| 2026-05-07 01:51 | 33.64953 | -84.32123 | 2748 ft | 163 kts | 264° |
| 2026-05-07 01:51 | 33.64977 | -84.33491 | 2272 ft | 161 kts | 263° |
| 2026-05-07 01:52 | 33.64964 | -84.34783 | 2028 ft | 151 kts | 262° |
| 2026-05-07 01:52 | 33.64953 | -84.36033 | 1812 ft | 148 kts | 265° |
| 2026-05-07 01:52 | 33.64952 | -84.37326 | 1641 ft | 160 kts | 266° |
| 2026-05-07 01:52 | 33.64959 | -84.38671 | 1362 ft | 158 kts | 266° |
| 2026-05-07 01:53 | 33.64957 | -84.39933 | 1153 ft | 150 kts | 266° |
| 2026-05-07 01:53 | 33.64961 | -84.41132 | 1013 ft | 136 kts | 265° |
| 2026-05-07 01:53 | 33.64952 | -84.42122 | 1012 ft | 95 kts | 270° |
| 2026-05-07 01:53 | 33.64953 | -84.42730 | 1011 ft | 51 kts | 269° |
| 2026-05-07 01:54 | 33.64951 | -84.43043 | 1010 ft | 33 kts | 266° |
| 2026-05-07 01:54 | 33.64886 | -84.43270 | 1011 ft | 19 kts | 245° |
| 2026-05-07 01:54 | 33.64837 | -84.43325 | 1011 ft | 6 kts | 166° |
| 2026-05-07 01:54 | 33.64808 | -84.43285 | 1011 ft | 7 kts | 126° |
| 2026-05-07 01:55 | 33.64792 | -84.43224 | 1011 ft | 9 kts | 101° |
| 2026-05-07 01:55 | 33.64789 | -84.43111 | 1011 ft | 18 kts | 90° |
| 2026-05-07 01:55 | 33.64790 | -84.42962 | 1011 ft | 18 kts | 90° |
| 2026-05-07 01:55 | 33.64790 | -84.42814 | 1011 ft | 18 kts | 90° |
| 2026-05-07 01:56 | 33.64791 | -84.42666 | 1011 ft | 18 kts | 88° |
| 2026-05-07 01:56 | 33.64791 | -84.42517 | 1010 ft | 18 kts | 90° |
| 2026-05-07 01:56 | 33.64789 | -84.42369 | 1010 ft | 18 kts | 90° |
| 2026-05-07 01:56 | 33.64783 | -84.42285 | 1010 ft | 0 kts | 113° |
| 2026-05-07 01:57 | 33.64757 | -84.42248 | 1011 ft | 18 kts | 142° |
| 2026-05-07 01:57 | 33.64645 | -84.42242 | 1008 ft | 16 kts | 178° |
| 2026-05-07 01:57 | 33.64534 | -84.42237 | 1010 ft | 14 kts | 178° |
| 2026-05-07 01:58 | 33.64473 | -84.42301 | 1010 ft | 14 kts | 270° |
| 2026-05-07 01:58 | 33.64475 | -84.42416 | 1010 ft | 14 kts | 267° |
| 2026-05-07 01:58 | 33.64469 | -84.42531 | 1011 ft | 14 kts | 267° |
| 2026-05-07 01:58 | 33.64467 | -84.42643 | 1011 ft | 13 kts | 270° |
| 2026-05-07 01:59 | 33.64465 | -84.42726 | 1011 ft | 9 kts | 267° |
| 2026-05-07 01:59 | 33.64478 | -84.42769 | 1011 ft | 6 kts | 327° |
| 2026-05-07 01:59 | 33.64486 | -84.42772 | 1011 ft | 0 kts | 342° |
| 2026-05-07 02:00 | 33.64495 | -84.42777 | 1011 ft | 4 kts | 332° |
| 2026-05-07 02:00 | 33.64523 | -84.42803 | 1011 ft | 9 kts | 315° |
| 2026-05-07 02:00 | 33.64550 | -84.42908 | 1011 ft | 14 kts | 266° |
| 2026-05-07 02:01 | 33.64543 | -84.43025 | 1011 ft | 14 kts | 266° |
| 2026-05-07 02:01 | 33.64509 | -84.43097 | 1011 ft | 10 kts | 200° |
| 2026-05-07 02:01 | 33.64456 | -84.43064 | 1011 ft | 10 kts | 103° |
| 2026-05-07 02:01 | 33.64458 | -84.42979 | 1011 ft | 10 kts | 89° |
| 2026-05-07 02:02 | 33.64460 | -84.42872 | 1011 ft | 18 kts | 88° |
| 2026-05-07 02:02 | 33.64466 | -84.42714 | 1011 ft | 19 kts | 87° |
| 2026-05-07 02:02 | 33.64470 | -84.42556 | 1011 ft | 19 kts | 89° |
| 2026-05-07 02:02 | 33.64473 | -84.42397 | 1010 ft | 19 kts | 88° |
| 2026-05-07 02:03 | 33.64453 | -84.42248 | 1011 ft | 19 kts | 133° |
| 2026-05-07 02:03 | 33.64327 | -84.42234 | 1011 ft | 19 kts | 183° |
| 2026-05-07 02:03 | 33.64234 | -84.42239 | 1011 ft | 12 kts | 182° |
| 2026-05-07 02:03 | 33.64127 | -84.42241 | 1011 ft | 18 kts | 180° |
| 2026-05-07 02:04 | 33.64000 | -84.42242 | 1011 ft | 18 kts | 179° |
| 2026-05-07 02:04 | 33.63873 | -84.42240 | 1011 ft | 18 kts | 178° |
| 2026-05-07 02:04 | 33.63765 | -84.42234 | 1011 ft | 15 kts | 177° |
| 2026-05-07 02:04 | 33.63660 | -84.42232 | 1011 ft | 15 kts | 180° |
| 2026-05-07 02:05 | 33.63607 | -84.42234 | 1011 ft | 0 kts | 181° |
| 2026-05-07 02:05 | 33.63512 | -84.42237 | 1012 ft | 26 kts | 181° |
| 2026-05-07 02:05 | 33.63371 | -84.42263 | 1010 ft | 18 kts | 228° |
| 2026-05-07 02:06 | 33.63307 | -84.42397 | 1010 ft | 18 kts | 241° |
| 2026-05-07 02:06 | 33.63294 | -84.42425 | 1010 ft | 0 kts | 241° |
| 2026-05-07 02:06 | 33.63291 | -84.42432 | 1010 ft | 8 kts | 241° |
| 2026-05-07 02:07 | 33.63230 | -84.42545 | 1010 ft | 18 kts | 220° |
| 2026-05-07 02:07 | 33.63023 | -84.42593 | 1010 ft | 14 kts | 202° |
| 2026-05-07 02:07 | 33.62968 | -84.42678 | 1011 ft | 14 kts | 265° |
| 2026-05-07 02:08 | 33.62963 | -84.42792 | 1011 ft | 14 kts | 265° |
| 2026-05-07 02:08 | 33.62894 | -84.42854 | 1011 ft | 14 kts | 186° |
| 2026-05-07 02:08 | 33.62799 | -84.42854 | 1011 ft | 14 kts | 179° |
| 2026-05-07 02:08 | 33.62705 | -84.42853 | 1011 ft | 13 kts | 180° |
| 2026-05-07 02:09 | 33.62666 | -84.42819 | 1011 ft | 6 kts | 93° |
| 2026-05-07 02:09 | 33.62672 | -84.42771 | 1011 ft | 6 kts | 86° |
| 2026-05-07 02:09 | 33.62672 | -84.42760 | 1011 ft | 0 kts | 88° |